Wolford, VA

11:36 AM EDT on July 23, 2014 (GMT -0400)
Tazewell County (KJFZ) Elev 2651 ft | 37.06 °N, 81.80 °W | Change Station

Current weather conditions updated 21 minutes ago

Scattered Clouds
Scattered Clouds
80 °F
Feels Like 80 °F
N
7
Wind Variable Wind from WSW

Today is forecast to be nearly the same temperature as yesterday. Thunderstorms tonight.

Today
High -- | Low -- °F
--% Chance of Precip.
Yesterday
High -- | Low -- °F
Precip. -- in
6:25 AM 8:43 PM
Waning Crescent, 10% visible
Pressure 30.18 in
Visibility 10.0 miles
Clouds Scattered Clouds 1600 ft
Scattered Clouds 2400 ft
Scattered Clouds 3500 ft
Dew Point 70 °F
Humidity 72%
Rainfall 0.00 in
Snow Depth Not available.
UV 7 out of 12
Pollen 4.60 out of 12
Air Quality Not available.
Flu Activity Not available.
METAR KJFZ 231515Z AUTO 25006KT 10SM SCT016 SCT024 SCT035 27/21 A3018 RMK AO2 T02650211

More Conditions Fewer Conditions

Pressure 30.18 in
Visibility 10.0 miles
Clouds Scattered Clouds 1600 ft
Scattered Clouds 2400 ft
Scattered Clouds 3500 ft
Dew Point 70 °F
Humidity 72%
Rainfall 0.00 in
Snow Depth Not available.
UV 7 out of 12
Pollen 4.60 out of 12
Air Quality Not available.
Flu Activity Not available.
METAR KJFZ 231515Z AUTO 25006KT 10SM SCT016 SCT024 SCT035 27/21 A3018 RMK AO2 T02650211

More Conditions Fewer Conditions

10-Day Weather Forecast

Almanac

Astronomy

Jul. 23, 2014 Rise Set
Actual Time 6:25 AM EDT 8:43 PM EDT
Civil Twilight 5:55 AM EDT 9:12 PM EDT
Nautical Twilight 5:19 AM EDT 9:49 PM EDT
Astronomical Twilight 4:39 AM EDT 10:28 PM EDT
Moon 3:42 AM EDT 6:11 PM EDT
Length of Visible Light 15h 17m
Length of Day
14h 18m
Tomorrow will be 1m 32s shorter.
Waning Crescent, 10% of the Moon is Illuminated
Today
Waning Crescent
Jul 26
New
Aug 3
First Quarter
Aug 10
Full
Aug 17
Last Quarter

Today's Extremes

State Highs State Lows

Community

WunderPhotos

Upload Photos

1,736,629 photos uploaded!

Nearby

Snow Depth

Station Depth Elevation
No new snow has been reported.

Earthquake Activity

City Distance Mag. Time & Date
No recent earthquake activity has been reported nearby.
Minimum magnitude displayed is 2.5.

Coastal Water Temperatures

Place Temperature
No Stations Reporting

Nearby Weather Stations

There are no personal weather stations in this area.